Cape Express — HO5337 — position and weather

sailwx.info

Track history (hours):
 
Tides and Currents Weather Stations Pressure Air Temp Water Temp Dewpoint Dewpoint Depression Visibility Wind Speed Wind Dir Waves Ship Positions

Cape Express

Last reported at 2018-Feb-21 00:29 UTC. Time now 2018-Feb-21 15:07 UTC.
Position N 24°21' W 076°46'.

Length 29 m; draft 2 m.

Type: Cargo ship. MMSI: 370269000.

Date/timePositionNaut miles runAvg speedWind from/ knotsBaromVisibWave heightAir tempDewpointWater temp
2018-Feb-21 00:29N 24°21' W 076°46'510.5
2018-Feb-21 00:00N 24°19' W 076°41'510.3
2018-Feb-20 23:30N 24°17' W 076°36'510.6
2018-Feb-20 23:00N 24°17' W 076°31'5 9.2
2018-Feb-20 22:31N 24°15' W 076°27'510.0
2018-Feb-20 22:00N 24°11' W 076°23'510.0
2018-Feb-20 21:30N 24°07' W 076°19'510.2
2018-Feb-20 21:00N 24°03' W 076°16'28 1.7
2018-Feb-20 04:12N 24°19' W 076°41'2 8.5
2018-Feb-20 04:00N 24°20' W 076°43'185 8.1
2018-Feb-19 05:06N 25°58' W 079°37'1 8.0
2018-Feb-19 05:00N 25°58' W 079°38'4 7.8
2018-Feb-19 04:30N 25°59' W 079°42'4 7.6
2018-Feb-19 03:59N 26°00' W 079°46'4 7.4
2018-Feb-19 03:30N 26°02' W 079°50'4 7.9
2018-Feb-19 03:00N 26°02' W 079°54'4 7.9
2018-Feb-19 02:30N 26°03' W 079°58'4 8.6
2018-Feb-19 02:00N 26°04' W 080°03'4 7.3
2018-Feb-19 01:30N 26°05' W 080°07'2 3.1
2018-Feb-19 01:00N 26°04' W 080°08'0 0.0
2018-Feb-19 00:30N 26°04' W 080°08'0 0.0
2018-Feb-19 00:00N 26°04' W 080°08'0 0.0
2018-Feb-18 23:30N 26°04' W 080°08'0 0.0
2018-Feb-18 23:00N 26°04' W 080°08'0 0.0
2018-Feb-18 22:30N 26°04' W 080°08'0 0.0
2018-Feb-18 22:00N 26°04' W 080°08'0 0.0
2018-Feb-18 21:30N 26°04' W 080°08'0 0.0
2018-Feb-18 21:00N 26°04' W 080°08'0 0.0
2018-Feb-18 20:30N 26°04' W 080°08'0 0.0
2018-Feb-18 20:00N 26°04' W 080°08'0 0.0
2018-Feb-18 19:30N 26°04' W 080°08'0 0.0
2018-Feb-18 19:00N 26°04' W 080°08'0 0.0
2018-Feb-18 18:30N 26°04' W 080°08'0 0.0
2018-Feb-18 18:00N 26°04' W 080°08'0 0.0
2018-Feb-18 17:30N 26°04' W 080°08'0 0.0
2018-Feb-18 17:00N 26°04' W 080°08'0 0.0
2018-Feb-18 16:30N 26°04' W 080°08'0 0.0
2018-Feb-18 16:00N 26°04' W 080°08'0 0.0
2018-Feb-18 15:30N 26°04' W 080°08'0 0.0
2018-Feb-18 15:00N 26°04' W 080°08'0 0.0
2018-Feb-18 14:30N 26°04' W 080°08'0 0.0
2018-Feb-18 14:00N 26°04' W 080°08'0 0.0
2018-Feb-18 13:30N 26°04' W 080°08'0 0.0
2018-Feb-18 13:00N 26°04' W 080°08'1 2.3
2018-Feb-18 12:30N 26°04' W 080°07'3 6.3
2018-Feb-18 12:00N 26°05' W 080°03'510.5
2018-Feb-18 11:30N 26°04' W 079°58'510.8
2018-Feb-18 11:00N 26°02' W 079°52'510.9
2018-Feb-18 10:30N 26°00' W 079°46'  
2018-Feb-15 21:12N 26°05' W 079°33'2 9.4
2018-Feb-15 20:59N 26°05' W 079°35'5 9.4
2018-Feb-15 20:30N 26°05' W 079°40'4 9.2
2018-Feb-15 20:00N 26°05' W 079°45'5 9.2
2018-Feb-15 19:30N 26°05' W 079°51'5 9.2
2018-Feb-15 19:00N 26°05' W 079°56'5 9.2
2018-Feb-15 18:30N 26°06' W 080°01'5 9.8
2018-Feb-15 18:00N 26°06' W 080°06'2 5.0
2018-Feb-15 17:30N 26°04' W 080°08'0 0.2
2018-Feb-15 17:00N 26°04' W 080°08'0 0.0
2018-Feb-15 16:30N 26°04' W 080°08'0 0.0
2018-Feb-15 16:00N 26°04' W 080°08'0 0.0
2018-Feb-15 15:31N 26°04' W 080°08'0 0.0
2018-Feb-15 15:00N 26°04' W 080°08'0 0.0
2018-Feb-15 14:30N 26°04' W 080°08'0 0.0
2018-Feb-15 14:00N 26°04' W 080°08'0 0.0
2018-Feb-15 13:30N 26°04' W 080°08'0 0.0
2018-Feb-15 13:00N 26°04' W 080°08'0 0.0
2018-Feb-15 12:30N 26°04' W 080°08'0 0.0
2018-Feb-15 12:00N 26°04' W 080°08'0 0.0
2018-Feb-15 11:30N 26°04' W 080°08'0 0.0
2018-Feb-15 11:00N 26°04' W 080°08'0 0.0
2018-Feb-15 10:30N 26°04' W 080°08'0 0.0
2018-Feb-15 10:00N 26°04' W 080°08'0 0.0
2018-Feb-15 09:30N 26°04' W 080°08'0 0.0
2018-Feb-15 09:00N 26°04' W 080°08'0 0.0
2018-Feb-15 08:30N 26°04' W 080°08'0 0.0
2018-Feb-15 08:00N 26°04' W 080°08'0 0.0
2018-Feb-15 07:30N 26°04' W 080°08'0 0.0
2018-Feb-15 07:00N 26°04' W 080°08'0 0.0
2018-Feb-15 06:30N 26°04' W 080°08'0 0.0
2018-Feb-15 06:00N 26°04' W 080°08'0 0.0
2018-Feb-15 05:30N 26°04' W 080°08'0 0.0
2018-Feb-15 05:00N 26°04' W 080°08'0 0.0
2018-Feb-15 04:30N 26°04' W 080°08'0 0.1
2018-Feb-15 04:00N 26°04' W 080°08'3 5.1
2018-Feb-15 03:30N 26°06' W 080°06'510.1
2018-Feb-15 03:00N 26°04' W 080°01'510.5
2018-Feb-15 02:30N 26°03' W 079°55'610.8
2018-Feb-15 01:58N 26°01' W 079°49'510.5
2018-Feb-15 01:30N 25°59' W 079°44'  
2018-Feb-12 16:16N 23°56' W 075°52'2 7.4
2018-Feb-12 16:00N 23°57' W 075°54'4 7.3
2018-Feb-12 15:30N 23°58' W 075°58'4 7.7
2018-Feb-12 15:00N 23°60' W 076°02'4 7.9
2018-Feb-12 14:30N 24°01' W 076°06'4 8.3
2018-Feb-12 14:00N 24°03' W 076°10'4 8.1
2018-Feb-12 13:29N 24°04' W 076°14'4 8.1
2018-Feb-12 13:00N 24°06' W 076°18'4 7.9
2018-Feb-12 12:30N 24°07' W 076°22'4 8.0
2018-Feb-12 12:00N 24°07' W 076°27'4 8.5
2018-Feb-12 11:30N 24°10' W 076°30'2 3.0
2018-Feb-12 10:58N 24°11' W 076°31'0 0.0
2018-Feb-12 10:29N 24°11' W 076°31'0 0.0
2018-Feb-12 10:00N 24°11' W 076°31'0 0.0
2018-Feb-12 09:27N 24°11' W 076°31'0 0.0
2018-Feb-12 09:00N 24°11' W 076°31'0 0.0
2018-Feb-12 08:29N 24°11' W 076°31'0 0.0
2018-Feb-12 08:00N 24°11' W 076°31'0 0.0
2018-Feb-12 07:30N 24°11' W 076°31'0 0.0
2018-Feb-12 06:58N 24°11' W 076°31'0 0.0
2018-Feb-12 06:30N 24°11' W 076°31'0 0.0
2018-Feb-12 06:00N 24°11' W 076°31'0 0.0
2018-Feb-12 05:27N 24°11' W 076°31'0 0.0
2018-Feb-12 04:58N 24°11' W 076°31'0 0.0
2018-Feb-12 04:30N 24°11' W 076°31'0 0.0
2018-Feb-12 03:58N 24°11' W 076°31'0 0.0
2018-Feb-12 03:23N 24°11' W 076°31'0 0.0
2018-Feb-12 02:57N 24°11' W 076°31'0 0.0
2018-Feb-12 02:25N 24°11' W 076°31'200 8.2
2018-Feb-11 02:05N 25°58' W 079°38'1 7.4
2018-Feb-11 02:00N 25°58' W 079°38'4 7.6
2018-Feb-11 01:30N 25°59' W 079°42'4 7.6
2018-Feb-11 01:00N 26°00' W 079°46'4 7.4
2018-Feb-11 00:30N 26°01' W 079°50'  
Track history (hours):
 
Tides and Currents Weather Stations Pressure Air Temp Water Temp Dewpoint Dewpoint Depression Visibility Wind Speed Wind Dir Waves Ship Positions

Cape Express

Last reported at 2018-Feb-21 00:29 UTC. Time now 2018-Feb-21 15:07 UTC.
Position N 24°21' W 076°46'.

Length 29 m; draft 2 m.

Type: Cargo ship. MMSI: 370269000.

Date/timePositionNaut miles runAvg speedWind from/ knotsBaromVisibWave heightAir tempDewpointWater temp
2018-Feb-21 00:29N 24°21' W 076°46'510.5
2018-Feb-21 00:00N 24°19' W 076°41'510.3
2018-Feb-20 23:30N 24°17' W 076°36'510.6
2018-Feb-20 23:00N 24°17' W 076°31'5 9.2
2018-Feb-20 22:31N 24°15' W 076°27'510.0
2018-Feb-20 22:00N 24°11' W 076°23'510.0
2018-Feb-20 21:30N 24°07' W 076°19'510.2
2018-Feb-20 21:00N 24°03' W 076°16'28 1.7
2018-Feb-20 04:12N 24°19' W 076°41'2 8.5
2018-Feb-20 04:00N 24°20' W 076°43'185 8.1
2018-Feb-19 05:06N 25°58' W 079°37'1 8.0
2018-Feb-19 05:00N 25°58' W 079°38'4 7.8
2018-Feb-19 04:30N 25°59' W 079°42'4 7.6
2018-Feb-19 03:59N 26°00' W 079°46'4 7.4
2018-Feb-19 03:30N 26°02' W 079°50'4 7.9
2018-Feb-19 03:00N 26°02' W 079°54'4 7.9
2018-Feb-19 02:30N 26°03' W 079°58'4 8.6
2018-Feb-19 02:00N 26°04' W 080°03'4 7.3
2018-Feb-19 01:30N 26°05' W 080°07'2 3.1
2018-Feb-19 01:00N 26°04' W 080°08'0 0.0
2018-Feb-19 00:30N 26°04' W 080°08'0 0.0
2018-Feb-19 00:00N 26°04' W 080°08'0 0.0
2018-Feb-18 23:30N 26°04' W 080°08'0 0.0
2018-Feb-18 23:00N 26°04' W 080°08'0 0.0
2018-Feb-18 22:30N 26°04' W 080°08'0 0.0
2018-Feb-18 22:00N 26°04' W 080°08'0 0.0
2018-Feb-18 21:30N 26°04' W 080°08'0 0.0
2018-Feb-18 21:00N 26°04' W 080°08'0 0.0
2018-Feb-18 20:30N 26°04' W 080°08'0 0.0
2018-Feb-18 20:00N 26°04' W 080°08'0 0.0
2018-Feb-18 19:30N 26°04' W 080°08'0 0.0
2018-Feb-18 19:00N 26°04' W 080°08'0 0.0
2018-Feb-18 18:30N 26°04' W 080°08'0 0.0
2018-Feb-18 18:00N 26°04' W 080°08'0 0.0
2018-Feb-18 17:30N 26°04' W 080°08'0 0.0
2018-Feb-18 17:00N 26°04' W 080°08'0 0.0
2018-Feb-18 16:30N 26°04' W 080°08'0 0.0
2018-Feb-18 16:00N 26°04' W 080°08'0 0.0
2018-Feb-18 15:30N 26°04' W 080°08'0 0.0
2018-Feb-18 15:00N 26°04' W 080°08'0 0.0
2018-Feb-18 14:30N 26°04' W 080°08'0 0.0
2018-Feb-18 14:00N 26°04' W 080°08'0 0.0
2018-Feb-18 13:30N 26°04' W 080°08'0 0.0
2018-Feb-18 13:00N 26°04' W 080°08'1 2.3
2018-Feb-18 12:30N 26°04' W 080°07'3 6.3
2018-Feb-18 12:00N 26°05' W 080°03'510.5
2018-Feb-18 11:30N 26°04' W 079°58'510.8
2018-Feb-18 11:00N 26°02' W 079°52'510.9
2018-Feb-18 10:30N 26°00' W 079°46'  
2018-Feb-15 21:12N 26°05' W 079°33'2 9.4
2018-Feb-15 20:59N 26°05' W 079°35'5 9.4
2018-Feb-15 20:30N 26°05' W 079°40'4 9.2
2018-Feb-15 20:00N 26°05' W 079°45'5 9.2
2018-Feb-15 19:30N 26°05' W 079°51'5 9.2
2018-Feb-15 19:00N 26°05' W 079°56'5 9.2
2018-Feb-15 18:30N 26°06' W 080°01'5 9.8
2018-Feb-15 18:00N 26°06' W 080°06'2 5.0
2018-Feb-15 17:30N 26°04' W 080°08'0 0.2
2018-Feb-15 17:00N 26°04' W 080°08'0 0.0
2018-Feb-15 16:30N 26°04' W 080°08'0 0.0
2018-Feb-15 16:00N 26°04' W 080°08'0 0.0
2018-Feb-15 15:31N 26°04' W 080°08'0 0.0
2018-Feb-15 15:00N 26°04' W 080°08'0 0.0
2018-Feb-15 14:30N 26°04' W 080°08'0 0.0
2018-Feb-15 14:00N 26°04' W 080°08'0 0.0
2018-Feb-15 13:30N 26°04' W 080°08'0 0.0
2018-Feb-15 13:00N 26°04' W 080°08'0 0.0
2018-Feb-15 12:30N 26°04' W 080°08'0 0.0
2018-Feb-15 12:00N 26°04' W 080°08'0 0.0
2018-Feb-15 11:30N 26°04' W 080°08'0 0.0
2018-Feb-15 11:00N 26°04' W 080°08'0 0.0
2018-Feb-15 10:30N 26°04' W 080°08'0 0.0
2018-Feb-15 10:00N 26°04' W 080°08'0 0.0
2018-Feb-15 09:30N 26°04' W 080°08'0 0.0
2018-Feb-15 09:00N 26°04' W 080°08'0 0.0
2018-Feb-15 08:30N 26°04' W 080°08'0 0.0
2018-Feb-15 08:00N 26°04' W 080°08'0 0.0
2018-Feb-15 07:30N 26°04' W 080°08'0 0.0
2018-Feb-15 07:00N 26°04' W 080°08'0 0.0
2018-Feb-15 06:30N 26°04' W 080°08'0 0.0
2018-Feb-15 06:00N 26°04' W 080°08'0 0.0
2018-Feb-15 05:30N 26°04' W 080°08'0 0.0
2018-Feb-15 05:00N 26°04' W 080°08'0 0.0
2018-Feb-15 04:30N 26°04' W 080°08'0 0.1
2018-Feb-15 04:00N 26°04' W 080°08'3 5.1
2018-Feb-15 03:30N 26°06' W 080°06'510.1
2018-Feb-15 03:00N 26°04' W 080°01'510.5
2018-Feb-15 02:30N 26°03' W 079°55'610.8
2018-Feb-15 01:58N 26°01' W 079°49'510.5
2018-Feb-15 01:30N 25°59' W 079°44'  
2018-Feb-12 16:16N 23°56' W 075°52'2 7.4
2018-Feb-12 16:00N 23°57' W 075°54'4 7.3
2018-Feb-12 15:30N 23°58' W 075°58'4 7.7
2018-Feb-12 15:00N 23°60' W 076°02'4 7.9
2018-Feb-12 14:30N 24°01' W 076°06'4 8.3
2018-Feb-12 14:00N 24°03' W 076°10'4 8.1
2018-Feb-12 13:29N 24°04' W 076°14'4 8.1
2018-Feb-12 13:00N 24°06' W 076°18'4 7.9
2018-Feb-12 12:30N 24°07' W 076°22'4 8.0
2018-Feb-12 12:00N 24°07' W 076°27'4 8.5
2018-Feb-12 11:30N 24°10' W 076°30'2 3.0
2018-Feb-12 10:58N 24°11' W 076°31'0 0.0
2018-Feb-12 10:29N 24°11' W 076°31'0 0.0
2018-Feb-12 10:00N 24°11' W 076°31'0 0.0
2018-Feb-12 09:27N 24°11' W 076°31'0 0.0
2018-Feb-12 09:00N 24°11' W 076°31'0 0.0
2018-Feb-12 08:29N 24°11' W 076°31'0 0.0
2018-Feb-12 08:00N 24°11' W 076°31'0 0.0
2018-Feb-12 07:30N 24°11' W 076°31'0 0.0
2018-Feb-12 06:58N 24°11' W 076°31'0 0.0
2018-Feb-12 06:30N 24°11' W 076°31'0 0.0
2018-Feb-12 06:00N 24°11' W 076°31'0 0.0
2018-Feb-12 05:27N 24°11' W 076°31'0 0.0
2018-Feb-12 04:58N 24°11' W 076°31'0 0.0
2018-Feb-12 04:30N 24°11' W 076°31'0 0.0
2018-Feb-12 03:58N 24°11' W 076°31'0 0.0
2018-Feb-12 03:23N 24°11' W 076°31'0 0.0
2018-Feb-12 02:57N 24°11' W 076°31'0 0.0
2018-Feb-12 02:25N 24°11' W 076°31'200 8.2
2018-Feb-11 02:05N 25°58' W 079°38'1 7.4
2018-Feb-11 02:00N 25°58' W 079°38'4 7.6
2018-Feb-11 01:30N 25°59' W 079°42'4 7.6
2018-Feb-11 01:00N 26°00' W 079°46'4 7.4
2018-Feb-11 00:30N 26°01' W 079°50'  

Dump ship's entire track history